sensor_id;sensor_type;location;lat;lon;timestamp;P1;durP1;ratioP1;P2;durP2;ratioP2
5722;SDS011;2886;49.722;8.612;2024-03-02T00:00:20;7.33;;;1.40;;
5722;SDS011;2886;49.722;8.612;2024-03-02T00:02:48;1.63;;;1.30;;
5722;SDS011;2886;49.722;8.612;2024-03-02T00:05:18;2.50;;;1.40;;
5722;SDS011;2886;49.722;8.612;2024-03-02T00:07:55;2.30;;;1.53;;
5722;SDS011;2886;49.722;8.612;2024-03-02T00:10:26;1.80;;;1.30;;
5722;SDS011;2886;49.722;8.612;2024-03-02T00:13:02;1.60;;;1.30;;
5722;SDS011;2886;49.722;8.612;2024-03-02T00:15:33;1.20;;;1.10;;
5722;SDS011;2886;49.722;8.612;2024-03-02T00:18:11;1.13;;;0.90;;
5722;SDS011;2886;49.722;8.612;2024-03-02T00:20:39;1.00;;;1.00;;
5722;SDS011;2886;49.722;8.612;2024-03-02T00:23:06;1.30;;;1.20;;
5722;SDS011;2886;49.722;8.612;2024-03-02T00:25:39;1.23;;;0.97;;
5722;SDS011;2886;49.722;8.612;2024-03-02T00:31:02;4.77;;;1.13;;
5722;SDS011;2886;49.722;8.612;2024-03-02T00:33:50;1.83;;;1.23;;
5722;SDS011;2886;49.722;8.612;2024-03-02T00:36:17;1.53;;;1.43;;
5722;SDS011;2886;49.722;8.612;2024-03-02T00:38:50;1.63;;;1.10;;
5722;SDS011;2886;49.722;8.612;2024-03-02T00:43:57;0.97;;;0.87;;
5722;SDS011;2886;49.722;8.612;2024-03-02T00:46:24;1.17;;;1.07;;
5722;SDS011;2886;49.722;8.612;2024-03-02T00:51:21;5.70;;;1.33;;
5722;SDS011;2886;49.722;8.612;2024-03-02T00:53:48;1.83;;;1.33;;
5722;SDS011;2886;49.722;8.612;2024-03-02T00:56:14;1.30;;;1.20;;
5722;SDS011;2886;49.722;8.612;2024-03-02T00:58:40;0.97;;;0.90;;
5722;SDS011;2886;49.722;8.612;2024-03-02T01:01:05;1.20;;;1.10;;
5722;SDS011;2886;49.722;8.612;2024-03-02T01:03:32;3.80;;;1.30;;
5722;SDS011;2886;49.722;8.612;2024-03-02T01:05:58;2.10;;;1.53;;
5722;SDS011;2886;49.722;8.612;2024-03-02T01:08:24;1.57;;;1.07;;
5722;SDS011;2886;49.722;8.612;2024-03-02T01:10:51;1.97;;;1.30;;
5722;SDS011;2886;49.722;8.612;2024-03-02T01:13:16;1.20;;;1.10;;
5722;SDS011;2886;49.722;8.612;2024-03-02T01:15:42;1.60;;;0.93;;
5722;SDS011;2886;49.722;8.612;2024-03-02T01:18:08;1.67;;;1.10;;
5722;SDS011;2886;49.722;8.612;2024-03-02T01:20:34;1.53;;;0.80;;
5722;SDS011;2886;49.722;8.612;2024-03-02T01:23:00;3.00;;;1.40;;
5722;SDS011;2886;49.722;8.612;2024-03-02T01:25:25;0.77;;;0.77;;
5722;SDS011;2886;49.722;8.612;2024-03-02T01:27:51;1.03;;;0.93;;
5722;SDS011;2886;49.722;8.612;2024-03-02T01:30:17;1.77;;;1.27;;
5722;SDS011;2886;49.722;8.612;2024-03-02T01:32:42;1.43;;;1.23;;
5722;SDS011;2886;49.722;8.612;2024-03-02T01:35:08;1.03;;;0.90;;
5722;SDS011;2886;49.722;8.612;2024-03-02T01:37:34;1.13;;;1.03;;
5722;SDS011;2886;49.722;8.612;2024-03-02T01:40:00;1.17;;;1.07;;
5722;SDS011;2886;49.722;8.612;2024-03-02T01:42:25;1.70;;;1.60;;
5722;SDS011;2886;49.722;8.612;2024-03-02T01:44:51;4.37;;;2.77;;
5722;SDS011;2886;49.722;8.612;2024-03-02T01:47:17;3.27;;;2.40;;
5722;SDS011;2886;49.722;8.612;2024-03-02T01:49:42;3.90;;;2.83;;
5722;SDS011;2886;49.722;8.612;2024-03-02T01:52:08;4.03;;;3.33;;
5722;SDS011;2886;49.722;8.612;2024-03-02T01:54:34;6.90;;;3.43;;
5722;SDS011;2886;49.722;8.612;2024-03-02T01:56:59;2.50;;;2.10;;
5722;SDS011;2886;49.722;8.612;2024-03-02T01:59:25;4.43;;;2.87;;
5722;SDS011;2886;49.722;8.612;2024-03-02T02:01:51;9.23;;;3.30;;
5722;SDS011;2886;49.722;8.612;2024-03-02T02:04:17;3.57;;;1.80;;
5722;SDS011;2886;49.722;8.612;2024-03-02T02:06:45;3.97;;;3.00;;
5722;SDS011;2886;49.722;8.612;2024-03-02T02:09:11;3.13;;;2.60;;
5722;SDS011;2886;49.722;8.612;2024-03-02T02:11:36;4.50;;;2.67;;
5722;SDS011;2886;49.722;8.612;2024-03-02T02:14:02;4.17;;;2.73;;
5722;SDS011;2886;49.722;8.612;2024-03-02T02:16:28;2.00;;;1.63;;
5722;SDS011;2886;49.722;8.612;2024-03-02T02:18:53;1.93;;;1.10;;
5722;SDS011;2886;49.722;8.612;2024-03-02T02:21:22;0.80;;;0.80;;
5722;SDS011;2886;49.722;8.612;2024-03-02T02:23:48;1.50;;;1.07;;
5722;SDS011;2886;49.722;8.612;2024-03-02T02:26:15;4.87;;;1.63;;
5722;SDS011;2886;49.722;8.612;2024-03-02T02:28:40;1.20;;;0.93;;
5722;SDS011;2886;49.722;8.612;2024-03-02T02:31:11;1.30;;;1.00;;
5722;SDS011;2886;49.722;8.612;2024-03-02T02:33:40;0.90;;;0.77;;
5722;SDS011;2886;49.722;8.612;2024-03-02T02:36:06;2.60;;;0.90;;
5722;SDS011;2886;49.722;8.612;2024-03-02T02:38:37;1.67;;;1.00;;
5722;SDS011;2886;49.722;8.612;2024-03-02T02:41:05;3.47;;;1.20;;
5722;SDS011;2886;49.722;8.612;2024-03-02T02:43:31;1.20;;;1.10;;
5722;SDS011;2886;49.722;8.612;2024-03-02T02:45:56;2.70;;;1.10;;
5722;SDS011;2886;49.722;8.612;2024-03-02T02:48:22;0.87;;;0.83;;
5722;SDS011;2886;49.722;8.612;2024-03-02T02:50:48;1.40;;;0.90;;
5722;SDS011;2886;49.722;8.612;2024-03-02T02:53:13;1.10;;;1.00;;
5722;SDS011;2886;49.722;8.612;2024-03-02T02:55:39;0.80;;;0.70;;
5722;SDS011;2886;49.722;8.612;2024-03-02T02:58:12;1.33;;;0.90;;
5722;SDS011;2886;49.722;8.612;2024-03-02T03:00:38;1.10;;;1.00;;
5722;SDS011;2886;49.722;8.612;2024-03-02T03:03:04;2.30;;;0.90;;
5722;SDS011;2886;49.722;8.612;2024-03-02T03:05:30;1.83;;;1.60;;
5722;SDS011;2886;49.722;8.612;2024-03-02T03:07:56;1.10;;;0.90;;
5722;SDS011;2886;49.722;8.612;2024-03-02T03:10:21;1.03;;;0.87;;
5722;SDS011;2886;49.722;8.612;2024-03-02T03:12:48;1.50;;;0.80;;
5722;SDS011;2886;49.722;8.612;2024-03-02T03:15:14;1.23;;;0.87;;
5722;SDS011;2886;49.722;8.612;2024-03-02T03:17:41;1.00;;;0.90;;
5722;SDS011;2886;49.722;8.612;2024-03-02T03:20:07;0.90;;;0.80;;
5722;SDS011;2886;49.722;8.612;2024-03-02T03:22:36;0.97;;;0.80;;
5722;SDS011;2886;49.722;8.612;2024-03-02T03:25:02;1.30;;;1.10;;
5722;SDS011;2886;49.722;8.612;2024-03-02T03:27:28;1.07;;;0.97;;
5722;SDS011;2886;49.722;8.612;2024-03-02T03:29:54;1.33;;;1.23;;
5722;SDS011;2886;49.722;8.612;2024-03-02T03:32:20;2.50;;;1.80;;
5722;SDS011;2886;49.722;8.612;2024-03-02T03:34:46;1.90;;;1.57;;
5722;SDS011;2886;49.722;8.612;2024-03-02T03:37:13;4.00;;;2.20;;
5722;SDS011;2886;49.722;8.612;2024-03-02T03:39:39;3.60;;;2.57;;
5722;SDS011;2886;49.722;8.612;2024-03-02T03:42:05;3.53;;;1.97;;
5722;SDS011;2886;49.722;8.612;2024-03-02T03:44:31;6.80;;;3.73;;
5722;SDS011;2886;49.722;8.612;2024-03-02T03:46:57;5.63;;;2.73;;
5722;SDS011;2886;49.722;8.612;2024-03-02T03:49:22;3.17;;;2.50;;
5722;SDS011;2886;49.722;8.612;2024-03-02T03:51:48;2.70;;;1.90;;
5722;SDS011;2886;49.722;8.612;2024-03-02T03:54:14;8.83;;;2.60;;
5722;SDS011;2886;49.722;8.612;2024-03-02T03:56:40;4.53;;;2.40;;
5722;SDS011;2886;49.722;8.612;2024-03-02T03:59:05;11.30;;;2.20;;
5722;SDS011;2886;49.722;8.612;2024-03-02T04:01:31;4.40;;;2.30;;
5722;SDS011;2886;49.722;8.612;2024-03-02T04:03:57;2.80;;;2.13;;
5722;SDS011;2886;49.722;8.612;2024-03-02T04:06:23;4.20;;;2.57;;
5722;SDS011;2886;49.722;8.612;2024-03-02T04:08:48;4.93;;;2.50;;
5722;SDS011;2886;49.722;8.612;2024-03-02T04:11:14;5.63;;;2.53;;
5722;SDS011;2886;49.722;8.612;2024-03-02T04:13:40;6.07;;;4.40;;
5722;SDS011;2886;49.722;8.612;2024-03-02T04:16:05;9.30;;;2.40;;
5722;SDS011;2886;49.722;8.612;2024-03-02T04:18:31;4.23;;;2.70;;
5722;SDS011;2886;49.722;8.612;2024-03-02T04:20:57;3.73;;;2.20;;
5722;SDS011;2886;49.722;8.612;2024-03-02T04:23:24;6.60;;;3.10;;
5722;SDS011;2886;49.722;8.612;2024-03-02T04:25:51;4.40;;;2.87;;
5722;SDS011;2886;49.722;8.612;2024-03-02T04:28:16;4.13;;;2.70;;
5722;SDS011;2886;49.722;8.612;2024-03-02T04:30:42;3.27;;;2.57;;
5722;SDS011;2886;49.722;8.612;2024-03-02T04:33:07;4.03;;;2.77;;
5722;SDS011;2886;49.722;8.612;2024-03-02T04:35:35;3.00;;;2.13;;
5722;SDS011;2886;49.722;8.612;2024-03-02T04:38:01;2.37;;;2.03;;
5722;SDS011;2886;49.722;8.612;2024-03-02T04:40:27;2.50;;;2.27;;
5722;SDS011;2886;49.722;8.612;2024-03-02T04:42:52;3.90;;;2.67;;
5722;SDS011;2886;49.722;8.612;2024-03-02T04:45:18;13.80;;;2.10;;
5722;SDS011;2886;49.722;8.612;2024-03-02T04:47:43;6.03;;;2.50;;
5722;SDS011;2886;49.722;8.612;2024-03-02T04:50:09;2.77;;;2.57;;
5722;SDS011;2886;49.722;8.612;2024-03-02T04:52:35;5.10;;;2.20;;
5722;SDS011;2886;49.722;8.612;2024-03-02T04:55:02;3.27;;;1.97;;
5722;SDS011;2886;49.722;8.612;2024-03-02T04:57:41;4.10;;;2.93;;
5722;SDS011;2886;49.722;8.612;2024-03-02T05:00:07;2.93;;;1.87;;
5722;SDS011;2886;49.722;8.612;2024-03-02T05:02:34;2.80;;;2.20;;
5722;SDS011;2886;49.722;8.612;2024-03-02T05:04:59;5.23;;;1.90;;
5722;SDS011;2886;49.722;8.612;2024-03-02T05:07:25;6.20;;;2.50;;
5722;SDS011;2886;49.722;8.612;2024-03-02T05:09:51;3.33;;;2.50;;
5722;SDS011;2886;49.722;8.612;2024-03-02T05:12:17;4.30;;;2.37;;
5722;SDS011;2886;49.722;8.612;2024-03-02T05:15:01;4.10;;;3.40;;
5722;SDS011;2886;49.722;8.612;2024-03-02T05:17:27;5.27;;;3.50;;
5722;SDS011;2886;49.722;8.612;2024-03-02T05:19:52;5.53;;;2.00;;
5722;SDS011;2886;49.722;8.612;2024-03-02T05:22:18;6.50;;;2.43;;
5722;SDS011;2886;49.722;8.612;2024-03-02T05:24:44;6.40;;;2.37;;
5722;SDS011;2886;49.722;8.612;2024-03-02T05:27:09;4.33;;;3.87;;
5722;SDS011;2886;49.722;8.612;2024-03-02T05:29:35;2.73;;;2.10;;
5722;SDS011;2886;49.722;8.612;2024-03-02T05:32:01;2.10;;;1.90;;
5722;SDS011;2886;49.722;8.612;2024-03-02T05:34:26;7.17;;;3.83;;
5722;SDS011;2886;49.722;8.612;2024-03-02T05:36:52;5.50;;;2.60;;
5722;SDS011;2886;49.722;8.612;2024-03-02T05:39:18;6.37;;;3.70;;
5722;SDS011;2886;49.722;8.612;2024-03-02T05:41:44;4.30;;;2.87;;
5722;SDS011;2886;49.722;8.612;2024-03-02T05:44:09;6.50;;;3.37;;
5722;SDS011;2886;49.722;8.612;2024-03-02T05:46:35;4.47;;;2.63;;
5722;SDS011;2886;49.722;8.612;2024-03-02T05:49:00;9.93;;;3.87;;
5722;SDS011;2886;49.722;8.612;2024-03-02T05:51:26;9.63;;;2.80;;
5722;SDS011;2886;49.722;8.612;2024-03-02T05:53:52;3.77;;;2.70;;
5722;SDS011;2886;49.722;8.612;2024-03-02T05:56:17;6.57;;;3.30;;
5722;SDS011;2886;49.722;8.612;2024-03-02T05:58:43;4.47;;;3.57;;
5722;SDS011;2886;49.722;8.612;2024-03-02T06:01:27;3.80;;;2.60;;
5722;SDS011;2886;49.722;8.612;2024-03-02T06:03:56;2.90;;;2.13;;
5722;SDS011;2886;49.722;8.612;2024-03-02T06:06:23;9.00;;;2.90;;
5722;SDS011;2886;49.722;8.612;2024-03-02T06:08:50;3.97;;;2.50;;
5722;SDS011;2886;49.722;8.612;2024-03-02T06:11:15;4.53;;;2.80;;
5722;SDS011;2886;49.722;8.612;2024-03-02T06:13:41;2.83;;;1.77;;
5722;SDS011;2886;49.722;8.612;2024-03-02T06:16:07;2.87;;;2.60;;
5722;SDS011;2886;49.722;8.612;2024-03-02T06:18:33;3.10;;;2.00;;
5722;SDS011;2886;49.722;8.612;2024-03-02T06:20:59;4.87;;;2.60;;
5722;SDS011;2886;49.722;8.612;2024-03-02T06:23:26;3.27;;;2.97;;
5722;SDS011;2886;49.722;8.612;2024-03-02T06:25:52;3.67;;;2.20;;
5722;SDS011;2886;49.722;8.612;2024-03-02T06:28:17;3.90;;;3.03;;
5722;SDS011;2886;49.722;8.612;2024-03-02T06:30:43;6.70;;;3.43;;
5722;SDS011;2886;49.722;8.612;2024-03-02T06:33:10;3.57;;;2.33;;
5722;SDS011;2886;49.722;8.612;2024-03-02T06:35:36;2.57;;;2.37;;
5722;SDS011;2886;49.722;8.612;2024-03-02T06:38:01;5.03;;;3.23;;
5722;SDS011;2886;49.722;8.612;2024-03-02T06:40:27;3.57;;;2.50;;
5722;SDS011;2886;49.722;8.612;2024-03-02T06:42:53;4.60;;;2.20;;
5722;SDS011;2886;49.722;8.612;2024-03-02T06:45:18;2.87;;;2.60;;
5722;SDS011;2886;49.722;8.612;2024-03-02T06:47:44;4.13;;;2.70;;
5722;SDS011;2886;49.722;8.612;2024-03-02T06:50:10;4.10;;;2.87;;
5722;SDS011;2886;49.722;8.612;2024-03-02T06:52:36;5.77;;;4.33;;
5722;SDS011;2886;49.722;8.612;2024-03-02T06:55:02;5.93;;;3.40;;
5722;SDS011;2886;49.722;8.612;2024-03-02T06:57:29;5.60;;;2.53;;
5722;SDS011;2886;49.722;8.612;2024-03-02T06:59:55;3.10;;;2.10;;
5722;SDS011;2886;49.722;8.612;2024-03-02T07:02:24;2.63;;;2.00;;
5722;SDS011;2886;49.722;8.612;2024-03-02T07:04:51;6.23;;;3.30;;
5722;SDS011;2886;49.722;8.612;2024-03-02T07:07:17;4.97;;;3.17;;
5722;SDS011;2886;49.722;8.612;2024-03-02T07:09:43;3.90;;;3.17;;
5722;SDS011;2886;49.722;8.612;2024-03-02T07:12:09;6.83;;;2.70;;
5722;SDS011;2886;49.722;8.612;2024-03-02T07:14:34;7.80;;;4.10;;
5722;SDS011;2886;49.722;8.612;2024-03-02T07:17:22;4.40;;;3.10;;
5722;SDS011;2886;49.722;8.612;2024-03-02T07:19:47;4.70;;;2.30;;
5722;SDS011;2886;49.722;8.612;2024-03-02T07:22:13;7.60;;;3.37;;
5722;SDS011;2886;49.722;8.612;2024-03-02T07:24:42;3.60;;;2.30;;
5722;SDS011;2886;49.722;8.612;2024-03-02T07:27:09;5.63;;;3.20;;
5722;SDS011;2886;49.722;8.612;2024-03-02T07:29:35;2.57;;;2.10;;
5722;SDS011;2886;49.722;8.612;2024-03-02T07:32:01;4.60;;;3.40;;
5722;SDS011;2886;49.722;8.612;2024-03-02T07:34:27;8.10;;;3.00;;
5722;SDS011;2886;49.722;8.612;2024-03-02T07:36:52;8.47;;;2.93;;
5722;SDS011;2886;49.722;8.612;2024-03-02T07:39:18;5.07;;;3.03;;
5722;SDS011;2886;49.722;8.612;2024-03-02T07:41:44;4.93;;;3.40;;
5722;SDS011;2886;49.722;8.612;2024-03-02T07:44:10;3.80;;;3.00;;
5722;SDS011;2886;49.722;8.612;2024-03-02T07:46:39;13.60;;;4.67;;
5722;SDS011;2886;49.722;8.612;2024-03-02T07:49:08;5.90;;;3.47;;
5722;SDS011;2886;49.722;8.612;2024-03-02T07:51:34;6.50;;;3.67;;
5722;SDS011;2886;49.722;8.612;2024-03-02T07:54:00;8.47;;;4.90;;
5722;SDS011;2886;49.722;8.612;2024-03-02T07:56:25;11.90;;;5.17;;
5722;SDS011;2886;49.722;8.612;2024-03-02T07:58:51;11.67;;;4.37;;
5722;SDS011;2886;49.722;8.612;2024-03-02T08:01:17;6.50;;;4.07;;
5722;SDS011;2886;49.722;8.612;2024-03-02T08:03:44;8.27;;;4.73;;
5722;SDS011;2886;49.722;8.612;2024-03-02T08:06:15;5.83;;;4.00;;
5722;SDS011;2886;49.722;8.612;2024-03-02T08:08:41;10.23;;;4.53;;
5722;SDS011;2886;49.722;8.612;2024-03-02T08:11:07;8.10;;;3.83;;
5722;SDS011;2886;49.722;8.612;2024-03-02T08:13:32;6.37;;;4.80;;
5722;SDS011;2886;49.722;8.612;2024-03-02T08:15:58;8.67;;;3.93;;
5722;SDS011;2886;49.722;8.612;2024-03-02T08:18:24;10.73;;;4.90;;
5722;SDS011;2886;49.722;8.612;2024-03-02T08:20:49;12.90;;;5.57;;
5722;SDS011;2886;49.722;8.612;2024-03-02T08:23:15;7.70;;;4.80;;
5722;SDS011;2886;49.722;8.612;2024-03-02T08:25:41;7.60;;;4.53;;
5722;SDS011;2886;49.722;8.612;2024-03-02T08:28:07;7.37;;;4.70;;
5722;SDS011;2886;49.722;8.612;2024-03-02T08:30:33;8.27;;;4.00;;
5722;SDS011;2886;49.722;8.612;2024-03-02T08:32:59;11.30;;;4.60;;
5722;SDS011;2886;49.722;8.612;2024-03-02T08:35:25;8.60;;;4.53;;
5722;SDS011;2886;49.722;8.612;2024-03-02T08:37:50;8.20;;;4.67;;
5722;SDS011;2886;49.722;8.612;2024-03-02T08:40:16;18.43;;;4.20;;
5722;SDS011;2886;49.722;8.612;2024-03-02T08:42:42;10.00;;;4.60;;
5722;SDS011;2886;49.722;8.612;2024-03-02T08:45:08;10.20;;;5.30;;
5722;SDS011;2886;49.722;8.612;2024-03-02T08:47:34;10.33;;;4.37;;
5722;SDS011;2886;49.722;8.612;2024-03-02T08:50:00;8.70;;;4.57;;
5722;SDS011;2886;49.722;8.612;2024-03-02T08:52:26;7.73;;;4.70;;
5722;SDS011;2886;49.722;8.612;2024-03-02T08:54:52;10.53;;;4.73;;
5722;SDS011;2886;49.722;8.612;2024-03-02T08:57:17;7.90;;;4.00;;
5722;SDS011;2886;49.722;8.612;2024-03-02T08:59:43;5.53;;;3.87;;
5722;SDS011;2886;49.722;8.612;2024-03-02T09:02:09;7.23;;;4.03;;
5722;SDS011;2886;49.722;8.612;2024-03-02T09:04:35;7.27;;;4.70;;
5722;SDS011;2886;49.722;8.612;2024-03-02T09:07:01;9.40;;;4.33;;
5722;SDS011;2886;49.722;8.612;2024-03-02T09:09:26;10.77;;;4.20;;
5722;SDS011;2886;49.722;8.612;2024-03-02T09:11:52;9.57;;;5.03;;
5722;SDS011;2886;49.722;8.612;2024-03-02T09:14:20;8.43;;;4.73;;
5722;SDS011;2886;49.722;8.612;2024-03-02T09:16:46;8.43;;;4.83;;
5722;SDS011;2886;49.722;8.612;2024-03-02T09:19:11;5.63;;;3.83;;
5722;SDS011;2886;49.722;8.612;2024-03-02T09:21:38;7.60;;;4.70;;
5722;SDS011;2886;49.722;8.612;2024-03-02T09:24:04;11.67;;;5.10;;
5722;SDS011;2886;49.722;8.612;2024-03-02T09:26:31;8.80;;;4.67;;
5722;SDS011;2886;49.722;8.612;2024-03-02T09:28:59;8.00;;;4.70;;
5722;SDS011;2886;49.722;8.612;2024-03-02T09:31:24;13.20;;;4.73;;
5722;SDS011;2886;49.722;8.612;2024-03-02T09:33:50;9.37;;;4.37;;
5722;SDS011;2886;49.722;8.612;2024-03-02T09:36:16;6.10;;;4.07;;
5722;SDS011;2886;49.722;8.612;2024-03-02T09:38:43;6.57;;;4.20;;
5722;SDS011;2886;49.722;8.612;2024-03-02T09:41:09;6.53;;;4.00;;
5722;SDS011;2886;49.722;8.612;2024-03-02T09:43:35;6.50;;;3.77;;
5722;SDS011;2886;49.722;8.612;2024-03-02T09:46:01;6.53;;;3.53;;
5722;SDS011;2886;49.722;8.612;2024-03-02T09:48:27;8.70;;;4.70;;
5722;SDS011;2886;49.722;8.612;2024-03-02T09:50:52;6.90;;;4.13;;
5722;SDS011;2886;49.722;8.612;2024-03-02T09:53:18;8.43;;;4.33;;
5722;SDS011;2886;49.722;8.612;2024-03-02T09:55:46;8.10;;;4.20;;
5722;SDS011;2886;49.722;8.612;2024-03-02T09:58:12;6.60;;;4.50;;
5722;SDS011;2886;49.722;8.612;2024-03-02T10:00:38;7.30;;;4.33;;
5722;SDS011;2886;49.722;8.612;2024-03-02T10:03:04;6.93;;;3.63;;
5722;SDS011;2886;49.722;8.612;2024-03-02T10:05:35;7.50;;;3.63;;
5722;SDS011;2886;49.722;8.612;2024-03-02T10:08:40;5.90;;;3.53;;
5722;SDS011;2886;49.722;8.612;2024-03-02T10:11:08;6.00;;;4.10;;
5722;SDS011;2886;49.722;8.612;2024-03-02T10:13:34;12.07;;;3.80;;
5722;SDS011;2886;49.722;8.612;2024-03-02T10:16:01;4.60;;;2.90;;
5722;SDS011;2886;49.722;8.612;2024-03-02T10:18:37;8.43;;;3.60;;
5722;SDS011;2886;49.722;8.612;2024-03-02T10:21:15;5.20;;;3.37;;
5722;SDS011;2886;49.722;8.612;2024-03-02T10:23:40;6.27;;;3.70;;
5722;SDS011;2886;49.722;8.612;2024-03-02T10:26:18;9.33;;;3.60;;
5722;SDS011;2886;49.722;8.612;2024-03-02T10:28:47;6.53;;;3.67;;
5722;SDS011;2886;49.722;8.612;2024-03-02T10:31:13;5.87;;;3.80;;
5722;SDS011;2886;49.722;8.612;2024-03-02T10:33:39;4.30;;;3.10;;
5722;SDS011;2886;49.722;8.612;2024-03-02T10:36:05;8.20;;;4.10;;
5722;SDS011;2886;49.722;8.612;2024-03-02T10:38:31;5.97;;;3.23;;
5722;SDS011;2886;49.722;8.612;2024-03-02T10:40:57;8.00;;;4.10;;
5722;SDS011;2886;49.722;8.612;2024-03-02T10:43:24;11.73;;;3.83;;
5722;SDS011;2886;49.722;8.612;2024-03-02T10:45:51;8.00;;;3.40;;
5722;SDS011;2886;49.722;8.612;2024-03-02T10:48:19;5.70;;;3.90;;
5722;SDS011;2886;49.722;8.612;2024-03-02T10:50:46;11.07;;;3.77;;
5722;SDS011;2886;49.722;8.612;2024-03-02T10:53:12;7.10;;;3.90;;
5722;SDS011;2886;49.722;8.612;2024-03-02T10:55:37;8.80;;;4.27;;
5722;SDS011;2886;49.722;8.612;2024-03-02T10:58:04;4.47;;;3.00;;
5722;SDS011;2886;49.722;8.612;2024-03-02T11:00:33;6.00;;;3.43;;
5722;SDS011;2886;49.722;8.612;2024-03-02T11:03:06;7.20;;;3.43;;
5722;SDS011;2886;49.722;8.612;2024-03-02T11:05:36;6.53;;;3.53;;
5722;SDS011;2886;49.722;8.612;2024-03-02T11:08:07;4.60;;;2.80;;
5722;SDS011;2886;49.722;8.612;2024-03-02T11:10:37;7.33;;;3.00;;
5722;SDS011;2886;49.722;8.612;2024-03-02T11:13:09;5.30;;;2.70;;
5722;SDS011;2886;49.722;8.612;2024-03-02T11:15:37;4.67;;;2.63;;
5722;SDS011;2886;49.722;8.612;2024-03-02T11:18:05;8.23;;;2.57;;
5722;SDS011;2886;49.722;8.612;2024-03-02T11:20:34;5.80;;;2.30;;
5722;SDS011;2886;49.722;8.612;2024-03-02T11:23:07;5.07;;;2.90;;
5722;SDS011;2886;49.722;8.612;2024-03-02T11:25:33;5.23;;;2.83;;
5722;SDS011;2886;49.722;8.612;2024-03-02T11:28:00;5.00;;;2.40;;
5722;SDS011;2886;49.722;8.612;2024-03-02T11:33:01;3.77;;;2.70;;
5722;SDS011;2886;49.722;8.612;2024-03-02T11:35:37;2.43;;;1.60;;
5722;SDS011;2886;49.722;8.612;2024-03-02T11:38:07;2.87;;;1.80;;
5722;SDS011;2886;49.722;8.612;2024-03-02T11:40:34;2.97;;;1.73;;
5722;SDS011;2886;49.722;8.612;2024-03-02T11:43:01;2.47;;;1.80;;
5722;SDS011;2886;49.722;8.612;2024-03-02T11:45:27;2.20;;;1.43;;
5722;SDS011;2886;49.722;8.612;2024-03-02T11:47:57;1.50;;;1.40;;
5722;SDS011;2886;49.722;8.612;2024-03-02T11:50:33;1.87;;;1.50;;
5722;SDS011;2886;49.722;8.612;2024-03-02T11:53:06;1.87;;;1.30;;
5722;SDS011;2886;49.722;8.612;2024-03-02T11:55:35;2.10;;;1.50;;
5722;SDS011;2886;49.722;8.612;2024-03-02T11:58:03;2.03;;;1.40;;
5722;SDS011;2886;49.722;8.612;2024-03-02T12:00:29;1.50;;;1.13;;
5722;SDS011;2886;49.722;8.612;2024-03-02T12:02:59;1.30;;;1.20;;
5722;SDS011;2886;49.722;8.612;2024-03-02T12:05:32;1.20;;;1.10;;
5722;SDS011;2886;49.722;8.612;2024-03-02T12:08:05;2.10;;;1.20;;
5722;SDS011;2886;49.722;8.612;2024-03-02T12:10:31;1.53;;;1.00;;
5722;SDS011;2886;49.722;8.612;2024-03-02T12:12:58;2.23;;;1.63;;
5722;SDS011;2886;49.722;8.612;2024-03-02T12:15:42;2.00;;;1.40;;
5722;SDS011;2886;49.722;8.612;2024-03-02T12:18:08;1.10;;;1.00;;
5722;SDS011;2886;49.722;8.612;2024-03-02T12:20:34;2.10;;;1.27;;
5722;SDS011;2886;49.722;8.612;2024-03-02T12:23:01;1.30;;;1.10;;
5722;SDS011;2886;49.722;8.612;2024-03-02T12:25:29;3.20;;;1.40;;
5722;SDS011;2886;49.722;8.612;2024-03-02T12:27:56;1.20;;;1.00;;
5722;SDS011;2886;49.722;8.612;2024-03-02T12:30:26;1.37;;;1.20;;
5722;SDS011;2886;49.722;8.612;2024-03-02T12:32:54;2.10;;;1.40;;
5722;SDS011;2886;49.722;8.612;2024-03-02T12:35:19;1.73;;;1.30;;
5722;SDS011;2886;49.722;8.612;2024-03-02T12:37:48;1.30;;;1.20;;
5722;SDS011;2886;49.722;8.612;2024-03-02T12:40:16;2.10;;;1.40;;
5722;SDS011;2886;49.722;8.612;2024-03-02T12:42:43;2.13;;;1.00;;
5722;SDS011;2886;49.722;8.612;2024-03-02T12:45:10;1.73;;;1.20;;
5722;SDS011;2886;49.722;8.612;2024-03-02T12:47:36;3.10;;;1.50;;
5722;SDS011;2886;49.722;8.612;2024-03-02T12:50:03;1.37;;;1.07;;
5722;SDS011;2886;49.722;8.612;2024-03-02T12:52:29;1.57;;;1.30;;
5722;SDS011;2886;49.722;8.612;2024-03-02T12:54:57;1.20;;;1.10;;
5722;SDS011;2886;49.722;8.612;2024-03-02T12:57:28;2.07;;;1.53;;
5722;SDS011;2886;49.722;8.612;2024-03-02T13:00:04;1.87;;;1.00;;
5722;SDS011;2886;49.722;8.612;2024-03-02T13:02:34;1.73;;;1.30;;
5722;SDS011;2886;49.722;8.612;2024-03-02T13:05:06;2.50;;;1.50;;
5722;SDS011;2886;49.722;8.612;2024-03-02T13:07:38;1.50;;;1.20;;
5722;SDS011;2886;49.722;8.612;2024-03-02T13:10:04;1.30;;;1.20;;
5722;SDS011;2886;49.722;8.612;2024-03-02T13:12:32;1.40;;;1.30;;
5722;SDS011;2886;49.722;8.612;2024-03-02T13:14:58;1.27;;;1.00;;
5722;SDS011;2886;49.722;8.612;2024-03-02T13:17:24;1.50;;;1.30;;
5722;SDS011;2886;49.722;8.612;2024-03-02T13:19:53;1.97;;;1.40;;
5722;SDS011;2886;49.722;8.612;2024-03-02T13:22:20;1.27;;;1.10;;
5722;SDS011;2886;49.722;8.612;2024-03-02T13:24:46;1.63;;;1.23;;
5722;SDS011;2886;49.722;8.612;2024-03-02T13:27:12;1.23;;;1.13;;
5722;SDS011;2886;49.722;8.612;2024-03-02T13:29:38;1.93;;;1.20;;
5722;SDS011;2886;49.722;8.612;2024-03-02T13:32:04;1.53;;;1.20;;
5722;SDS011;2886;49.722;8.612;2024-03-02T13:34:30;1.33;;;1.23;;
5722;SDS011;2886;49.722;8.612;2024-03-02T13:36:56;3.03;;;1.20;;
5722;SDS011;2886;49.722;8.612;2024-03-02T13:39:21;1.80;;;1.27;;
5722;SDS011;2886;49.722;8.612;2024-03-02T13:41:48;1.70;;;1.20;;
5722;SDS011;2886;49.722;8.612;2024-03-02T13:44:20;1.53;;;1.20;;
5722;SDS011;2886;49.722;8.612;2024-03-02T13:46:46;1.20;;;1.10;;
5722;SDS011;2886;49.722;8.612;2024-03-02T13:49:13;1.30;;;1.20;;
5722;SDS011;2886;49.722;8.612;2024-03-02T13:51:39;2.87;;;1.40;;
5722;SDS011;2886;49.722;8.612;2024-03-02T13:54:04;2.10;;;1.40;;
5722;SDS011;2886;49.722;8.612;2024-03-02T13:56:30;3.30;;;1.13;;
5722;SDS011;2886;49.722;8.612;2024-03-02T13:58:57;2.47;;;1.10;;
5722;SDS011;2886;49.722;8.612;2024-03-02T14:01:23;1.33;;;1.23;;
5722;SDS011;2886;49.722;8.612;2024-03-02T14:03:48;1.30;;;1.20;;
5722;SDS011;2886;49.722;8.612;2024-03-02T14:06:14;6.30;;;1.50;;
5722;SDS011;2886;49.722;8.612;2024-03-02T14:08:40;1.80;;;1.60;;
5722;SDS011;2886;49.722;8.612;2024-03-02T14:11:07;3.73;;;1.60;;
5722;SDS011;2886;49.722;8.612;2024-03-02T14:13:34;4.40;;;2.00;;
5722;SDS011;2886;49.722;8.612;2024-03-02T14:15:59;1.50;;;1.13;;
5722;SDS011;2886;49.722;8.612;2024-03-02T14:18:25;2.03;;;1.60;;
5722;SDS011;2886;49.722;8.612;2024-03-02T14:20:51;2.50;;;1.50;;
5722;SDS011;2886;49.722;8.612;2024-03-02T14:23:18;1.30;;;1.20;;
5722;SDS011;2886;49.722;8.612;2024-03-02T14:25:44;4.20;;;1.63;;
5722;SDS011;2886;49.722;8.612;2024-03-02T14:28:10;1.60;;;1.03;;
5722;SDS011;2886;49.722;8.612;2024-03-02T14:30:37;1.70;;;1.17;;
5722;SDS011;2886;49.722;8.612;2024-03-02T14:33:02;3.00;;;1.33;;
5722;SDS011;2886;49.722;8.612;2024-03-02T14:35:28;2.07;;;1.30;;
5722;SDS011;2886;49.722;8.612;2024-03-02T14:37:55;4.87;;;1.23;;
5722;SDS011;2886;49.722;8.612;2024-03-02T14:40:22;1.43;;;1.30;;
5722;SDS011;2886;49.722;8.612;2024-03-02T14:42:51;1.13;;;1.03;;
5722;SDS011;2886;49.722;8.612;2024-03-02T14:45:17;2.60;;;1.60;;
5722;SDS011;2886;49.722;8.612;2024-03-02T14:47:43;1.43;;;1.23;;
5722;SDS011;2886;49.722;8.612;2024-03-02T14:50:09;1.13;;;0.93;;
5722;SDS011;2886;49.722;8.612;2024-03-02T14:52:35;0.87;;;0.87;;
5722;SDS011;2886;49.722;8.612;2024-03-02T14:55:00;1.60;;;0.83;;
5722;SDS011;2886;49.722;8.612;2024-03-02T14:57:27;3.80;;;1.20;;
5722;SDS011;2886;49.722;8.612;2024-03-02T14:59:53;2.30;;;0.97;;
5722;SDS011;2886;49.722;8.612;2024-03-02T15:02:19;2.13;;;1.10;;
5722;SDS011;2886;49.722;8.612;2024-03-02T15:04:45;1.73;;;1.20;;
5722;SDS011;2886;49.722;8.612;2024-03-02T15:07:12;2.30;;;1.10;;
5722;SDS011;2886;49.722;8.612;2024-03-02T15:09:38;1.10;;;1.00;;
5722;SDS011;2886;49.722;8.612;2024-03-02T15:12:04;3.20;;;1.40;;
5722;SDS011;2886;49.722;8.612;2024-03-02T15:14:31;1.30;;;0.87;;
5722;SDS011;2886;49.722;8.612;2024-03-02T15:16:57;1.33;;;0.80;;
5722;SDS011;2886;49.722;8.612;2024-03-02T15:19:23;1.10;;;0.90;;
5722;SDS011;2886;49.722;8.612;2024-03-02T15:21:48;0.90;;;0.80;;
5722;SDS011;2886;49.722;8.612;2024-03-02T15:24:14;1.03;;;0.93;;